KGEG/GEG METAR and TAF weather

Enter ICAO airport designator
Station Type Date Time Source
KGEG METAR 2019/06/18 16:53 UTC NOAA

KGEG 181653Z 23010KT 10SM FEW050 FEW250 21/09 A3000 RMK AO2 SLP143 T02110089


Station Type Date Time Source
KGEG Decoded METAR 2019/06/18 16:53 UTC NOAA

SPOKANE INTERNATIONAL AIRPORT , WA, United States (KGEG) 47-37N 117-32W 735M
Jun 18, 2019 - 12:53 PM EDT / 2019.06.18 1653 UTC
Wind: from the SW (230 degrees) at 12 MPH (10 KT):0
Visibility: 10 mile(s):0
Sky conditions: mostly clear
Temperature: 70.0 F (21.1 C)
Dew Point: 48.0 F (8.9 C)
Relative Humidity: 45%
Pressure (altimeter): 30 in. Hg (1015 hPa)
ob: KGEG 181653Z 23010KT 10SM FEW050 FEW250 21/09 A3000 RMK AO2 SLP143 T02110089
cycle: 17

Station Type Date Time Source
KGEG TAF 2019/06/18 12:22 UTC NOAA

TAF KGEG 181120Z 1812/1912 21013KT P6SM SCT250
FM181800 23013G18KT P6SM SCT070
FM190300 22011G17KT P6SM SCT250

Example: see airport list